Timbauba, Brazil
Current Conditions -  °F | °C
As of 3:00 PM on Thursday 29 Jan 2015 (Local Time) from SBJP Reporting Station
Broken Clouds Broken Clouds  
Wind Chill: 84°   Ceiling: 2500
Heat Index: 88°   Visibility: 6mi
Dew Point: 70°   Wind: 10mph
Humidity: 62%   Direction: 90°E
Pressure: 29.85"   Gusts: NA
Location:  7.51°S, 35.32°W
Report Text: SBJP 291800Z 09009KT 060V140 9999 BKN025 BKN070 29/21 Q1011
Loading
Personal Weather Stations






























Interactive Weather Map New forecast layout! Learn more

10-Day Weather Forecast

Advertisements
Track Severe Weather on mobile